Aviation Digital Data Service (ADDS)

Output produced by TAFs form (0014 UTC 25 November 2017)
found at http://www.aviationweather.gov/adds/tafs/
 
METAR text: OERK 250000Z 00000KT CAVOK 12/10 Q1024 NOSIG
Conditions at: OERK (RIYADH/KING KHAL, SA) observed 0000 UTC 25 November 2017
Temperature: 12.0°C (54°F)
Dewpoint: 10.0°C (50°F) [RH = 88%]
Pressure (altimeter): 30.24 inches Hg (1024.0 mb)
Winds: calm
Visibility: 6 or more miles (10+ km)
Ceiling: ceiling and visibility are OK
Clouds: unknown
Weather: no significant weather observed at this time

Forecast for: OERK (RIYADH/KING KHAL, SA)
Text: TAF OERK 242300Z 2500/2606 02006KT 7000 SCT040 BKN080
Forecast period: 0000 to 0600 UTC 25 November 2017
Forecast type: FROM: standard forecast or significant change
Winds: from the NNE (20 degrees) at 7 MPH (6 knots; 3.1 m/s)
Visibility: 4 miles (7 km)
Ceiling: 8000 feet AGL
Clouds: scattered clouds at 4000 feet AGL
broken clouds at 8000 feet AGL
Weather: no significant weather forecast for this period
Text: BECMG 2506/2508 08012KT
Forecast period: 0600 UTC 25 November 2017 to 0600 UTC 26 November 2017
Forecast type: BECOMING: Conditions expected to become as follows by 0800 UTC 25 November 2017
Winds: from the E (80 degrees) at 14 MPH (12 knots; 6.2 m/s)
Visibility: 4 miles (7 km)
Ceiling: 8000 feet AGL
Clouds: scattered clouds at 4000 feet AGL
broken clouds at 8000 feet AGL
Weather: no significant weather forecast for this period